Time;durP1;ratioP1;P1;durP2;ratioP2;P2;SDS_P1;SDS_P2;PMS_P1;PMS_P2;Temp;Humidity;BMP_temperature;BMP_pressure;BME280_temperature;BME280_humidity;BME280_pressure;Samples;Min_cycle;Max_cycle;Signal;HPM_P1;HPM_P2
2022/12/04 00:00:12;;;;;;;;;50.67;40.67;;;;;5.95;72.64;98575.72;5014653;28;45415;-79
2022/12/04 00:02:38;;;;;;;;;58.00;47.67;;;;;5.95;72.85;98587.03;5015168;28;45424;-79
2022/12/04 00:05:04;;;;;;;;;56.67;43.00;;;;;5.98;72.76;98580.00;5013318;28;45766;-80
2022/12/04 00:07:30;;;;;;;;;55.00;41.33;;;;;5.99;72.69;98582.59;5015455;28;45364;-79
2022/12/04 00:09:55;;;;;;;;;57.33;43.67;;;;;5.99;72.52;98582.59;5015840;28;45408;-79
2022/12/04 00:12:21;;;;;;;;;56.33;45.00;;;;;5.99;72.66;98574.75;5015032;28;45537;-79
2022/12/04 00:14:46;;;;;;;;;53.00;44.00;;;;;5.99;72.45;98573.88;5015116;28;46067;-79
2022/12/04 00:17:12;;;;;;;;;55.00;42.33;;;;;5.99;72.53;98572.13;5012081;28;45366;-79
2022/12/04 00:19:37;;;;;;;;;57.00;40.33;;;;;5.99;72.57;98564.28;5014782;28;45262;-79
2022/12/04 00:22:03;;;;;;;;;50.00;41.67;;;;;5.97;72.30;98563.47;5021608;28;45550;-79
2022/12/04 00:24:29;;;;;;;;;57.67;43.67;;;;;5.97;72.56;98565.22;5015036;28;45659;-78
2022/12/04 00:26:54;;;;;;;;;50.00;39.67;;;;;5.97;72.64;98562.59;5015252;28;45404;-80
2022/12/04 00:29:19;;;;;;;;;50.67;40.00;;;;;5.95;72.66;98563.50;5014388;28;45374;-79
2022/12/04 00:31:45;;;;;;;;;51.67;42.33;;;;;5.95;72.45;98557.41;5015460;28;45302;-79
2022/12/04 00:34:10;;;;;;;;;41.33;36.00;;;;;5.94;72.26;98555.69;5014853;28;46319;-78
2022/12/04 00:36:36;;;;;;;;;56.00;44.00;;;;;5.95;72.56;98557.41;5014608;28;45484;-79
2022/12/04 00:39:03;;;;;;;;;52.67;42.67;;;;;5.93;72.38;98560.06;5015030;28;45541;-79
2022/12/04 00:41:30;;;;;;;;;51.33;42.67;;;;;5.92;72.54;98558.34;5014905;28;45578;-79
2022/12/04 00:43:56;;;;;;;;;53.33;43.67;;;;;5.92;72.61;98558.34;5015137;28;45377;-78
2022/12/04 00:46:21;;;;;;;;;51.33;40.00;;;;;5.92;72.52;98566.22;5014887;28;45512;-79
2022/12/04 00:48:47;;;;;;;;;57.33;41.33;;;;;5.92;72.71;98553.13;5015578;28;45364;-79
2022/12/04 00:51:19;;;;;;;;;47.67;36.00;;;;;5.92;72.79;98557.50;5014795;28;45397;-79
2022/12/04 00:53:45;;;;;;;;;54.00;42.67;;;;;5.89;72.79;98557.59;5015166;28;46574;-79
2022/12/04 00:56:15;;;;;;;;;55.33;40.00;;;;;5.89;72.75;98554.97;5014434;28;45519;-79
2022/12/04 00:58:40;;;;;;;;;51.67;41.67;;;;;5.88;72.54;98559.34;5014717;28;45377;-79
2022/12/04 01:01:09;;;;;;;;;46.00;39.33;;;;;5.88;72.70;98558.44;5011781;28;45408;-79
2022/12/04 01:03:35;;;;;;;;;54.67;44.33;;;;;5.88;72.48;98572.41;5010551;28;46444;-78
2022/12/04 01:06:03;;;;;;;;;55.00;40.33;;;;;5.86;72.57;98569.00;5014351;28;45385;-79
2022/12/04 01:08:28;;;;;;;;;45.00;39.67;;;;;5.86;72.65;98566.38;5014922;28;45436;-78
2022/12/04 01:10:54;;;;;;;;;55.67;40.33;;;;;5.84;72.79;98573.41;5014087;28;45423;-78
2022/12/04 01:13:19;;;;;;;;;54.33;40.67;;;;;5.84;72.70;98570.78;5014207;28;45601;-79
2022/12/04 01:15:46;;;;;;;;;51.67;42.67;;;;;5.85;73.07;98576.88;5014271;28;45355;-78
2022/12/04 01:18:13;;;;;;;;;53.33;40.67;;;;;5.84;73.04;98585.63;5014207;28;45361;-79
2022/12/04 01:20:39;;;;;;;;;54.33;42.00;;;;;5.81;72.88;98581.34;5014004;28;45436;-79
2022/12/04 01:23:04;;;;;;;;;56.00;42.67;;;;;5.81;72.92;98589.19;5014303;28;45388;-78
2022/12/04 01:25:30;;;;;;;;;43.00;39.00;;;;;5.82;72.95;98585.69;5014033;28;45397;-79
2022/12/04 01:27:55;;;;;;;;;46.67;39.33;;;;;5.82;73.30;98588.28;5014513;28;45400;-79
2022/12/04 01:30:21;;;;;;;;;52.33;42.67;;;;;5.81;73.18;98589.19;5013036;28;45501;-79
2022/12/04 01:32:47;;;;;;;;;43.00;39.00;;;;;5.80;73.27;98574.41;5014280;28;46560;-78
2022/12/04 01:35:13;;;;;;;;;53.33;40.00;;;;;5.81;73.37;98573.50;5013587;28;45404;-78
2022/12/04 01:37:38;;;;;;;;;54.00;41.67;;;;;5.81;73.12;98570.88;5014008;28;45369;-79
2022/12/04 01:40:04;;;;;;;;;59.67;42.00;;;;;5.83;73.21;98570.84;5012409;28;45370;-78
2022/12/04 01:42:30;;;;;;;;;46.00;39.67;;;;;5.82;73.09;98569.13;5013854;28;45633;-79
2022/12/04 01:45:30;;;;;;;;;48.00;40.00;;;;;5.81;73.30;98557.81;5011940;28;45339;-79
2022/12/04 01:48:20;;;;;;;;;55.33;42.67;;;;;5.80;73.58;98556.09;5011413;28;45523;-79
2022/12/04 01:50:49;;;;;;;;;46.00;40.00;;;;;5.80;73.13;98552.63;5009059;28;45452;-79
2022/12/04 01:53:15;;;;;;;;;52.00;41.00;;;;;5.78;73.33;98554.41;5014119;28;46447;-78
2022/12/04 01:55:42;;;;;;;;;53.33;40.67;;;;;5.77;73.08;98557.94;5012566;28;45422;-78
2022/12/04 01:58:08;;;;;;;;;52.33;41.00;;;;;5.76;73.12;98557.06;5013828;28;45421;-79
2022/12/04 02:00:34;;;;;;;;;53.67;43.33;;;;;5.75;73.67;98554.50;5029071;28;45387;-79
2022/12/04 02:03:00;;;;;;;;;47.33;39.67;;;;;5.74;73.26;98544.94;5013335;28;45542;-79
2022/12/04 02:05:26;;;;;;;;;54.00;39.00;;;;;5.75;73.33;98550.13;5013500;28;45640;-78
2022/12/04 02:07:56;;;;;;;;;59.67;41.67;;;;;5.74;73.35;98545.78;5025811;28;45513;-79
2022/12/04 02:10:32;;;;;;;;;46.00;39.67;;;;;5.73;73.32;98540.59;5008354;28;45422;-78
2022/12/04 02:13:04;;;;;;;;;44.67;37.33;;;;;5.74;73.33;98547.56;5013853;28;45391;-78
2022/12/04 02:15:52;;;;;;;;;52.67;39.00;;;;;5.72;73.17;98544.97;5013621;28;45435;-78
2022/12/04 02:18:21;;;;;;;;;35.00;30.00;;;;;5.71;73.30;98545.88;5013337;28;45303;-79
2022/12/04 02:20:59;;;;;;;;;55.00;42.00;;;;;5.70;73.38;98556.41;5013316;28;45419;-79
2022/12/04 02:23:48;;;;;;;;;50.67;42.67;;;;;5.70;73.32;98543.34;5013802;28;46555;-79
2022/12/04 02:26:26;;;;;;;;;48.00;41.00;;;;;5.70;73.44;98538.94;5013348;28;45385;-79
2022/12/04 02:29:10;;;;;;;;;52.00;42.00;;;;;5.69;73.37;98547.72;5013693;28;45402;-78
2022/12/04 02:31:55;;;;;;;;;54.33;44.00;;;;;5.67;73.51;98546.03;5028901;28;45508;-78
2022/12/04 02:34:50;;;;;;;;;52.00;39.00;;;;;5.67;73.52;98549.50;5028262;28;47258;-78
2022/12/04 02:37:34;;;;;;;;;43.00;36.67;;;;;5.67;73.45;98543.44;5002854;28;45560;-78
2022/12/04 02:40:36;;;;;;;;;45.67;39.67;;;;;5.64;73.68;98547.00;5013181;28;45376;-78
2022/12/04 02:43:32;;;;;;;;;47.00;37.33;;;;;5.63;73.76;98552.25;5011410;28;45572;-77
2022/12/04 02:46:04;;;;;;;;;53.00;41.67;;;;;5.63;73.81;98549.66;5012360;28;46015;-77
2022/12/04 02:48:33;;;;;;;;;50.00;40.00;;;;;5.60;73.61;98559.28;5012861;28;45412;-78
2022/12/04 02:51:01;;;;;;;;;54.33;42.67;;;;;5.60;74.01;98563.66;5013367;28;45385;-80
2022/12/04 02:53:31;;;;;;;;;52.33;42.00;;;;;5.60;73.77;98568.88;5011750;28;45536;-79
2022/12/04 02:56:21;;;;;;;;;46.00;38.67;;;;;5.60;74.01;98572.34;5013061;28;46219;-79
2022/12/04 02:58:55;;;;;;;;;54.33;41.33;;;;;5.61;74.16;98574.06;5013180;28;45475;-79
2022/12/04 03:01:27;;;;;;;;;45.33;37.33;;;;;5.61;74.37;98586.28;5032015;28;45391;-79
2022/12/04 03:04:05;;;;;;;;;53.67;41.67;;;;;5.61;74.03;98583.69;5048243;28;45566;-78
2022/12/04 03:06:37;;;;;;;;;56.33;42.00;;;;;5.61;74.21;98596.75;5015782;28;45437;-79
2022/12/04 03:09:29;;;;;;;;;46.67;39.33;;;;;5.63;74.30;98587.09;5015961;28;45321;-79
2022/12/04 03:12:05;;;;;;;;;57.00;42.67;;;;;5.65;74.12;98589.69;5011680;28;45516;-79
2022/12/04 03:14:37;;;;;;;;;55.67;45.00;;;;;5.63;74.42;98600.19;5016940;28;45506;-78
2022/12/04 03:17:09;;;;;;;;;57.33;42.33;;;;;5.63;74.13;98586.25;5048393;28;48339;-79
2022/12/04 03:19:44;;;;;;;;;56.00;42.33;;;;;5.63;74.41;98591.47;5014856;28;45461;-79
2022/12/04 03:22:13;;;;;;;;;49.00;40.67;;;;;5.63;74.55;98594.94;5016469;28;45313;-80
2022/12/04 03:24:50;;;;;;;;;45.33;38.00;;;;;5.64;74.39;98588.81;5032004;28;45365;-79
2022/12/04 03:27:19;;;;;;;;;51.67;41.67;;;;;5.65;74.36;98587.06;5003228;28;46200;-80
2022/12/04 03:30:05;;;;;;;;;55.00;43.33;;;;;5.65;74.40;98589.69;5031651;28;45333;-79
2022/12/04 03:32:42;;;;;;;;;57.00;42.00;;;;;5.63;74.32;98592.34;5016375;28;45401;-80
2022/12/04 03:35:17;;;;;;;;;54.33;40.00;;;;;5.61;74.39;98587.16;5015867;28;45582;-80
2022/12/04 03:38:20;;;;;;;;;52.67;41.33;;;;;5.58;74.03;98589.84;5014012;28;45567;-79
2022/12/04 03:41:03;;;;;;;;;43.33;34.33;;;;;5.53;74.07;98588.28;5015795;28;45461;-79
2022/12/04 03:43:54;;;;;;;;;44.33;33.67;;;;;5.51;74.27;98584.84;4996743;28;45469;-79
2022/12/04 03:46:30;;;;;;;;;40.67;36.67;;;;;5.50;74.41;98586.59;5045735;28;45389;-80
2022/12/04 03:49:28;;;;;;;;;53.67;42.33;;;;;5.52;74.36;98594.41;5015973;28;45473;-79
2022/12/04 03:52:03;;;;;;;;;45.67;39.33;;;;;5.49;74.42;98597.97;4969604;28;45396;-79
2022/12/04 03:54:58;;;;;;;;;53.33;44.33;;;;;5.46;74.69;98591.97;5015995;28;45385;-79
2022/12/04 03:57:30;;;;;;;;;50.00;39.33;;;;;5.41;74.82;98597.31;5005672;28;45553;-80
2022/12/04 04:00:11;;;;;;;;;52.00;41.33;;;;;5.39;74.86;98603.47;5014765;28;45578;-79
2022/12/04 04:02:43;;;;;;;;;46.67;39.00;;;;;5.37;74.85;98610.50;5015656;28;45423;-79
2022/12/04 04:05:11;;;;;;;;;54.33;39.00;;;;;5.36;75.07;98607.06;5015514;28;45385;-79
2022/12/04 04:07:51;;;;;;;;;53.33;41.33;;;;;5.38;74.96;98599.13;5015527;28;45393;-79
2022/12/04 04:10:21;;;;;;;;;56.67;43.00;;;;;5.35;75.39;98607.94;5014983;28;45983;-78
2022/12/04 04:24:20;;;;;;;;;48.67;39.33;;;;;5.45;75.28;98613.75;5015171;28;45306;-78
2022/12/04 04:26:48;;;;;;;;;60.33;43.00;;;;;5.48;74.66;98616.31;5013147;28;45505;-79
2022/12/04 04:29:14;;;;;;;;;54.00;42.00;;;;;5.48;75.35;98619.78;5015304;28;45321;-79
2022/12/04 04:32:21;;;;;;;;;53.67;43.00;;;;;5.49;75.08;98618.03;5015000;28;45480;-79
2022/12/04 04:34:55;;;;;;;;;46.67;38.33;;;;;5.50;75.22;98612.75;5009034;28;45560;-78
2022/12/04 04:37:46;;;;;;;;;41.67;37.33;;;;;5.52;75.05;98615.31;5015323;28;45484;-79
2022/12/04 04:40:34;;;;;;;;;52.33;40.00;;;;;5.55;74.90;98630.91;5014802;28;45451;-79
2022/12/04 04:43:23;;;;;;;;;46.33;38.67;;;;;5.57;74.57;98629.97;5014400;28;46024;-78
2022/12/04 04:46:03;;;;;;;;;52.33;40.33;;;;;5.60;74.50;98642.97;5014928;28;45530;-78
2022/12/04 04:48:35;;;;;;;;;50.67;41.33;;;;;5.63;74.48;98644.63;5014753;28;45402;-79
2022/12/04 04:51:03;;;;;;;;;57.33;39.33;;;;;5.65;74.57;98635.00;5014755;28;45401;-78
2022/12/04 04:53:34;;;;;;;;;49.00;40.67;;;;;5.65;74.85;98632.38;5014617;28;45461;-79
2022/12/04 04:56:03;;;;;;;;;40.67;38.33;;;;;5.66;74.83;98633.22;5013879;28;45404;-78
2022/12/04 04:58:28;;;;;;;;;48.33;41.00;;;;;5.66;74.44;98638.47;5014779;28;45400;-79
2022/12/04 05:01:25;;;;;;;;;53.00;40.00;;;;;5.68;74.85;98636.66;5013910;28;45461;-79
2022/12/04 05:03:50;;;;;;;;;44.33;36.33;;;;;5.68;74.71;98634.91;5005967;28;45475;-79
2022/12/04 05:06:16;;;;;;;;;57.00;40.33;;;;;5.70;74.83;98634.88;5014449;28;45453;-78
2022/12/04 05:08:41;;;;;;;;;46.00;39.33;;;;;5.70;74.80;98640.94;5014709;28;45873;-78
2022/12/04 05:11:11;;;;;;;;;46.33;38.67;;;;;5.71;74.83;98641.78;5014347;28;45374;-79
2022/12/04 05:13:36;;;;;;;;;53.33;42.00;;;;;5.71;74.84;98636.56;5014013;28;47185;-79
2022/12/04 05:16:05;;;;;;;;;50.67;41.33;;;;;5.68;74.74;98621.84;5014584;28;45492;-78
2022/12/04 05:18:32;;;;;;;;;50.00;38.67;;;;;5.65;75.03;98627.16;5014046;28;45554;-78
2022/12/04 05:20:57;;;;;;;;;52.67;39.67;;;;;5.66;75.13;98631.47;5014378;28;45379;-78
2022/12/04 05:23:24;;;;;;;;;44.67;39.33;;;;;5.68;75.11;98627.06;5013390;28;46448;-78
2022/12/04 05:25:50;;;;;;;;;46.67;40.67;;;;;5.69;75.00;98634.00;5014255;28;45497;-79
2022/12/04 05:28:16;;;;;;;;;50.67;40.00;;;;;5.70;75.11;98640.09;5014190;28;45354;-79
2022/12/04 05:30:41;;;;;;;;;49.67;42.33;;;;;5.71;74.99;98644.41;5014667;28;45388;-79
2022/12/04 05:33:06;;;;;;;;;55.33;40.67;;;;;5.71;75.29;98637.41;5014102;28;45989;-79
2022/12/04 05:35:32;;;;;;;;;43.67;37.33;;;;;5.71;75.26;98645.25;5014397;28;45447;-79
2022/12/04 05:37:57;;;;;;;;;47.67;42.00;;;;;5.72;74.98;98652.19;5011241;28;45503;-78
2022/12/04 05:40:22;;;;;;;;;51.33;42.00;;;;;5.72;75.36;98649.59;4997326;28;45383;-79
2022/12/04 05:42:48;;;;;;;;;50.33;39.33;;;;;5.74;75.49;98644.31;5008650;28;46641;-78
2022/12/04 05:45:13;;;;;;;;;54.00;41.33;;;;;5.74;75.20;98647.78;5012373;28;45472;-79
2022/12/04 05:47:44;;;;;;;;;47.33;41.00;;;;;5.75;75.34;98659.13;5013866;28;45365;-79
2022/12/04 05:50:11;;;;;;;;;53.00;42.67;;;;;5.76;75.53;98666.06;5013421;28;45629;-78
2022/12/04 05:52:37;;;;;;;;;52.67;44.67;;;;;5.76;75.33;98671.28;5014137;28;45484;-78
2022/12/04 05:55:03;;;;;;;;;52.33;39.00;;;;;5.77;75.72;98673.00;5013953;28;45385;-79
2022/12/04 05:57:28;;;;;;;;;54.33;42.33;;;;;5.78;75.46;98672.09;5013682;28;45364;-79
2022/12/04 05:59:54;;;;;;;;;57.67;44.33;;;;;5.80;75.57;98672.94;5013295;28;45475;-79
2022/12/04 06:02:19;;;;;;;;;58.33;45.00;;;;;5.81;75.50;98672.88;5013432;28;46009;-78
2022/12/04 06:04:45;;;;;;;;;55.67;44.00;;;;;5.82;75.19;98672.00;5013799;28;45306;-78
2022/12/04 06:07:10;;;;;;;;;45.33;38.67;;;;;5.84;75.07;98677.19;5014149;28;45342;-78
2022/12/04 06:09:36;;;;;;;;;59.00;42.00;;;;;5.83;75.17;98673.69;5012574;28;45395;-79
2022/12/04 06:12:03;;;;;;;;;51.00;42.67;;;;;5.83;75.24;98662.38;5011406;28;47206;-79
2022/12/04 06:14:28;;;;;;;;;54.33;41.33;;;;;5.83;75.15;98665.84;5013829;28;45453;-79
2022/12/04 06:16:54;;;;;;;;;51.00;40.00;;;;;5.83;75.39;98668.47;5029015;28;45729;-78
2022/12/04 06:19:21;;;;;;;;;49.33;40.67;;;;;5.84;75.21;98659.72;5013299;28;45572;-78
2022/12/04 06:21:49;;;;;;;;;55.00;44.67;;;;;5.84;75.29;98662.34;5013480;28;45452;-79
2022/12/04 06:24:22;;;;;;;;;57.67;46.00;;;;;5.85;75.23;98663.19;5012778;28;45493;-79
2022/12/04 06:26:48;;;;;;;;;51.67;41.00;;;;;5.85;75.35;98657.97;5012898;28;45492;-78
2022/12/04 06:29:14;;;;;;;;;51.00;40.33;;;;;5.85;75.67;98658.81;5012154;28;45397;-78
2022/12/04 06:31:40;;;;;;;;;49.00;38.33;;;;;5.85;75.45;98660.59;5009427;28;45413;-79
2022/12/04 06:34:07;;;;;;;;;55.67;43.33;;;;;5.84;75.58;98664.97;5015150;28;45334;-79
2022/12/04 06:36:34;;;;;;;;;41.33;34.00;;;;;5.83;75.55;98660.63;5032190;28;45737;-77
2022/12/04 06:38:59;;;;;;;;;54.00;42.33;;;;;5.83;75.63;98665.00;5017064;28;45429;-78
2022/12/04 06:41:27;;;;;;;;;52.67;39.67;;;;;5.82;75.42;98676.34;5016636;28;46171;-79
2022/12/04 06:43:53;;;;;;;;;50.33;39.00;;;;;5.81;75.43;98666.78;5017275;28;45454;-79
2022/12/04 06:46:21;;;;;;;;;61.67;43.00;;;;;5.82;75.58;98676.34;5015478;28;45410;-79
2022/12/04 06:48:47;;;;;;;;;54.00;42.00;;;;;5.80;75.60;98665.94;5032403;28;45341;-79
2022/12/04 06:51:22;;;;;;;;;45.33;37.33;;;;;5.80;75.17;98657.22;5016866;28;46049;-79
2022/12/04 06:53:47;;;;;;;;;54.00;38.67;;;;;5.79;75.44;98653.75;5016409;28;45394;-79
2022/12/04 06:56:17;;;;;;;;;55.00;42.33;;;;;5.80;75.29;98659.84;5031464;28;45419;-78
2022/12/04 06:58:51;;;;;;;;;46.67;37.00;;;;;5.81;75.32;98661.56;5016643;28;45400;-78
2022/12/04 07:01:19;;;;;;;;;52.33;42.67;;;;;5.80;75.21;98654.63;5015816;28;45567;-78
2022/12/04 07:03:45;;;;;;;;;56.33;42.00;;;;;5.80;75.42;98659.84;5016169;28;45550;-79
2022/12/04 07:06:19;;;;;;;;;53.33;43.00;;;;;5.80;75.38;98645.00;5016516;28;45465;-78
2022/12/04 07:08:47;;;;;;;;;49.67;39.00;;;;;5.81;75.52;98649.34;5016497;28;45512;-78
2022/12/04 07:11:13;;;;;;;;;37.33;32.67;;;;;5.82;75.63;98655.44;5031549;28;48022;-78
2022/12/04 07:13:39;;;;;;;;;52.33;42.00;;;;;5.83;75.57;98651.91;5015690;28;45648;-78
2022/12/04 07:16:06;;;;;;;;;53.33;41.33;;;;;5.85;75.54;98655.34;5007003;28;45479;-79
2022/12/04 07:18:33;;;;;;;;;47.00;40.67;;;;;5.85;75.67;98661.44;5015860;28;45421;-78
2022/12/04 07:20:58;;;;;;;;;55.00;40.00;;;;;5.84;75.51;98659.72;5016313;28;45464;-77
2022/12/04 07:23:24;;;;;;;;;46.00;39.67;;;;;5.85;75.58;98666.69;5016388;28;45357;-77
2022/12/04 07:25:49;;;;;;;;;49.00;41.33;;;;;5.86;75.84;98667.53;5016125;28;45445;-78
2022/12/04 07:28:15;;;;;;;;;48.67;40.33;;;;;5.84;75.68;98664.97;5016166;28;45435;-78
2022/12/04 07:30:40;;;;;;;;;44.67;40.00;;;;;5.84;75.73;98659.72;5031253;28;47382;-78
2022/12/04 07:33:05;;;;;;;;;49.33;41.67;;;;;5.85;75.75;98671.06;5015440;28;45377;-78
2022/12/04 07:35:31;;;;;;;;;63.33;46.67;;;;;5.85;75.86;98669.28;5015691;28;45378;-78
2022/12/04 07:37:56;;;;;;;;;56.67;45.00;;;;;5.86;75.89;98676.25;5015610;28;45340;-79
2022/12/04 07:40:22;;;;;;;;;55.00;45.67;;;;;5.87;75.97;98675.31;5013469;28;48343;-78
2022/12/04 07:42:47;;;;;;;;;54.00;42.00;;;;;5.91;76.07;98702.28;5015325;28;45399;-78
2022/12/04 07:45:13;;;;;;;;;55.33;43.00;;;;;5.94;75.86;98702.19;5015323;28;45840;-78
2022/12/04 07:47:38;;;;;;;;;53.67;42.67;;;;;5.97;75.64;98706.50;5015667;28;45560;-78
2022/12/04 07:50:05;;;;;;;;;56.67;45.67;;;;;5.98;76.03;98702.97;5007525;28;45412;-77
2022/12/04 07:52:34;;;;;;;;;62.67;46.33;;;;;6.00;75.77;98702.03;5015151;28;45468;-78
2022/12/04 07:55:00;;;;;;;;;55.00;45.67;;;;;6.01;76.03;98701.13;5015198;28;45386;-78
2022/12/04 07:57:27;;;;;;;;;60.00;48.00;;;;;6.04;75.80;98705.41;5008940;28;45321;-78
2022/12/04 07:59:52;;;;;;;;;60.67;47.67;;;;;6.05;75.70;98702.75;5015944;28;45525;-78
2022/12/04 08:02:19;;;;;;;;;53.33;43.00;;;;;6.06;75.92;98707.06;5015092;28;45466;-78
2022/12/04 08:04:44;;;;;;;;;58.67;47.00;;;;;6.07;75.75;98710.56;5015501;28;45479;-78
2022/12/04 08:07:10;;;;;;;;;58.00;48.00;;;;;6.11;76.09;98720.03;5047354;28;45529;-78
2022/12/04 08:09:35;;;;;;;;;50.33;40.67;;;;;6.13;76.40;98716.47;5015261;28;46054;-78
2022/12/04 08:12:01;;;;;;;;;59.67;46.33;;;;;6.16;76.89;98721.63;5003100;28;45378;-78
2022/12/04 08:14:26;;;;;;;;;66.33;51.67;;;;;6.21;76.98;98737.19;5014913;28;45425;-78
2022/12/04 08:16:52;;;;;;;;;64.00;50.33;;;;;6.23;76.73;98735.38;5014489;28;45369;-79
2022/12/04 08:19:17;;;;;;;;;60.67;46.67;;;;;6.24;77.21;98726.63;5014219;28;45459;-79
2022/12/04 08:21:42;;;;;;;;;63.67;48.67;;;;;6.24;77.07;98743.19;5014518;28;45508;-79
2022/12/04 08:24:08;;;;;;;;;61.67;49.33;;;;;6.23;77.01;98735.38;5015431;28;45441;-79
2022/12/04 08:26:33;;;;;;;;;60.33;47.00;;;;;6.22;76.95;98733.66;5014848;28;45350;-79
2022/12/04 08:29:02;;;;;;;;;59.00;47.00;;;;;6.20;76.92;98733.69;5014980;28;45484;-80
2022/12/04 08:31:31;;;;;;;;;60.33;48.00;;;;;6.22;77.39;98736.28;5015122;28;45311;-79
2022/12/04 08:33:58;;;;;;;;;63.67;46.00;;;;;6.23;77.39;98735.38;5013759;28;45387;-79
2022/12/04 08:36:24;;;;;;;;;60.00;46.33;;;;;6.25;77.47;98729.19;5014677;28;45406;-79
2022/12/04 08:38:50;;;;;;;;;59.33;48.00;;;;;6.25;78.00;98726.59;5014877;28;46429;-78
2022/12/04 08:41:18;;;;;;;;;57.67;47.33;;;;;6.26;77.73;98727.44;5014707;28;45398;-78
2022/12/04 08:43:43;;;;;;;;;59.33;45.00;;;;;6.27;77.18;98722.16;5015336;28;45433;-79
2022/12/04 08:46:12;;;;;;;;;50.33;43.33;;;;;6.26;77.41;98724.81;5014783;28;45376;-80
2022/12/04 08:48:39;;;;;;;;;57.33;46.33;;;;;6.27;78.11;98710.84;5014663;28;46628;-78
2022/12/04 08:51:08;;;;;;;;;59.00;49.67;;;;;6.27;78.42;98714.31;5029899;28;45468;-78
2022/12/04 08:53:35;;;;;;;;;49.67;39.67;;;;;6.28;78.62;98708.19;5013894;28;45456;-79
2022/12/04 08:56:01;;;;;;;;;52.33;42.33;;;;;6.28;78.46;98716.03;5012379;28;45518;-79
2022/12/04 08:58:26;;;;;;;;;55.33;44.33;;;;;6.29;78.78;98722.13;5014195;28;45847;-80
2022/12/04 09:00:51;;;;;;;;;51.67;41.33;;;;;6.30;78.93;98723.84;5014252;28;45384;-80
2022/12/04 09:03:19;;;;;;;;;63.00;51.33;;;;;6.30;79.12;98724.69;5012853;28;45440;-80
2022/12/04 09:05:45;;;;;;;;;60.67;48.67;;;;;6.30;79.16;98727.31;5014619;28;45574;-80
2022/12/04 09:08:15;;;;;;;;;61.33;47.00;;;;;6.30;79.47;98729.06;5014698;28;45496;-77
2022/12/04 09:10:43;;;;;;;;;55.33;46.33;;;;;6.30;79.69;98729.06;5013826;28;45393;-80
2022/12/04 09:13:08;;;;;;;;;55.00;44.33;;;;;6.30;79.58;98722.09;5014162;28;45369;-78
2022/12/04 09:15:38;;;;;;;;;62.00;49.00;;;;;6.33;79.32;98725.53;5011206;28;45401;-78
2022/12/04 09:18:03;;;;;;;;;57.67;47.00;;;;;6.32;79.38;98737.75;5029990;28;47927;-78
2022/12/04 09:20:29;;;;;;;;;61.00;47.00;;;;;6.30;79.32;98743.03;5013310;28;45421;-80
2022/12/04 09:22:54;;;;;;;;;63.00;48.33;;;;;6.30;79.83;98743.03;5014322;28;45441;-78
2022/12/04 09:25:19;;;;;;;;;59.67;47.33;;;;;6.32;79.82;98742.13;5014017;28;45421;-80
2022/12/04 09:27:45;;;;;;;;;63.67;51.33;;;;;6.34;79.91;98735.09;5014377;28;46035;-79
2022/12/04 09:30:12;;;;;;;;;63.00;46.00;;;;;6.36;79.78;98726.28;5014305;28;45579;-78
2022/12/04 09:32:37;;;;;;;;;64.33;48.00;;;;;6.43;80.12;98719.94;5013767;28;45372;-79
2022/12/04 09:35:04;;;;;;;;;66.33;52.33;;;;;6.53;79.97;98710.94;5044579;28;46015;-78
2022/12/04 09:37:31;;;;;;;;;63.67;48.33;;;;;6.64;80.23;98703.59;5027991;28;47721;-78
2022/12/04 09:39:57;;;;;;;;;61.00;47.33;;;;;6.76;79.72;98699.72;5011756;28;45405;-79
2022/12/04 09:42:44;;;;;;;;;61.00;46.00;;;;;6.85;79.28;98693.34;5011970;28;45381;-77
2022/12/04 09:45:22;;;;;;;;;63.33;48.00;;;;;6.90;78.95;98697.53;5013139;28;45381;-77
2022/12/04 09:47:56;;;;;;;;;62.33;49.00;;;;;6.94;78.71;98706.16;5008741;28;45527;-78
2022/12/04 09:50:27;;;;;;;;;59.50;46.50;;;;;6.95;78.82;98710.47;5012724;28;45463;-77
2022/12/04 09:53:05;;;;;;;;;57.67;46.33;;;;;6.96;79.00;98718.28;5006746;28;45390;-78
2022/12/04 09:55:49;;;;;;;;;56.67;45.00;;;;;6.99;79.06;98718.19;5044932;28;45516;-77
2022/12/04 09:58:22;;;;;;;;;52.67;41.33;;;;;7.02;79.20;98705.91;5001723;28;45374;-78
2022/12/04 10:00:51;;;;;;;;;66.00;50.67;;;;;7.05;79.56;98700.53;5009392;28;45379;-78
2022/12/04 10:03:20;;;;;;;;;62.33;48.67;;;;;7.10;79.56;98699.50;5013343;28;45393;-78
2022/12/04 10:05:57;;;;;;;;;61.00;49.00;;;;;7.13;79.33;98707.25;5012840;28;45435;-78
2022/12/04 10:08:27;;;;;;;;;58.67;45.33;;;;;7.16;79.35;98696.69;5027826;28;47147;-78
2022/12/04 10:11:05;;;;;;;;;63.00;47.33;;;;;7.22;79.26;98693.84;5015927;28;45441;-77
2022/12/04 10:13:36;;;;;;;;;52.67;42.67;;;;;7.28;79.05;98684.94;5031636;28;45380;-80
2022/12/04 10:16:17;;;;;;;;;58.67;46.00;;;;;7.36;78.71;98696.03;5010645;28;45433;-79
2022/12/04 10:19:04;;;;;;;;;58.00;47.67;;;;;7.43;78.16;98705.38;5012270;28;45529;-78
2022/12/04 10:21:58;;;;;;;;;54.33;42.00;;;;;7.50;77.92;98693.78;5014515;28;45426;-79
2022/12/04 10:24:37;;;;;;;;;62.00;47.33;;;;;7.51;78.00;98687.63;5001756;28;45492;-78
2022/12/04 10:27:11;;;;;;;;;52.33;43.67;;;;;7.54;77.90;98686.66;5014343;28;45456;-78
2022/12/04 10:29:41;;;;;;;;;53.67;43.67;;;;;7.59;77.30;98685.56;5015723;28;46198;-80
2022/12/04 10:32:21;;;;;;;;;55.33;41.67;;;;;7.68;77.61;98690.53;5015168;28;45519;-79
2022/12/04 10:34:50;;;;;;;;;58.00;44.67;;;;;7.75;77.82;98692.91;5013009;28;45424;-79
2022/12/04 10:37:15;;;;;;;;;59.33;46.00;;;;;7.77;77.10;98685.84;5030508;28;45543;-79
2022/12/04 10:39:43;;;;;;;;;57.00;47.33;;;;;7.77;76.90;98677.97;5019807;28;45511;-79
2022/12/04 10:42:25;;;;;;;;;61.67;47.67;;;;;7.75;76.85;98678.03;5014625;28;45720;-80
2022/12/04 10:44:52;;;;;;;;;57.67;47.33;;;;;7.75;76.52;98666.66;5030939;28;45466;-69
2022/12/04 10:47:17;;;;;;;;;54.67;43.33;;;;;7.75;76.33;98658.78;5015108;28;45298;-67
2022/12/04 10:49:43;;;;;;;;;62.33;46.33;;;;;7.72;76.26;98660.63;5014492;28;45532;-72
2022/12/04 10:52:14;;;;;;;;;55.33;45.67;;;;;7.75;76.77;98661.41;5016058;28;45457;-68
2022/12/04 10:54:51;;;;;;;;;53.33;44.33;;;;;7.74;76.66;98665.81;5015802;28;45398;-70
2022/12/04 10:57:16;;;;;;;;;56.33;44.67;;;;;7.72;76.87;98670.25;5010859;28;45407;-68
2022/12/04 10:59:51;;;;;;;;;59.00;44.67;;;;;7.69;76.62;98673.88;5015413;28;45280;-68
2022/12/04 11:02:21;;;;;;;;;58.33;42.67;;;;;7.65;77.08;98674.88;5010695;28;45452;-68
2022/12/04 11:04:58;;;;;;;;;60.00;45.00;;;;;7.64;76.96;98674.94;5015238;28;45441;-69
2022/12/04 11:07:27;;;;;;;;;54.67;42.67;;;;;7.61;77.34;98680.28;5015263;28;45344;-69
2022/12/04 11:10:16;;;;;;;;;59.67;48.00;;;;;7.58;77.36;98670.75;5013996;28;46680;-69
2022/12/04 11:12:53;;;;;;;;;62.67;49.33;;;;;7.57;77.67;98671.66;5014602;28;45411;-69
2022/12/04 11:15:18;;;;;;;;;63.00;48.33;;;;;7.58;78.02;98660.25;5015213;28;45451;-69
2022/12/04 11:17:43;;;;;;;;;46.33;41.67;;;;;7.59;77.99;98634.88;5014151;28;45642;-69
2022/12/04 11:20:25;;;;;;;;;59.33;45.33;;;;;7.62;78.35;98625.13;5045784;28;46551;-68
2022/12/04 11:22:50;;;;;;;;;62.33;48.00;;;;;7.68;78.65;98624.06;5015044;28;45468;-69
2022/12/04 11:25:18;;;;;;;;;61.33;47.00;;;;;7.75;78.57;98611.56;5014525;28;45432;-70
2022/12/04 11:27:51;;;;;;;;;61.33;49.33;;;;;7.82;78.26;98607.81;5015172;28;45468;-68
2022/12/04 11:30:36;;;;;;;;;64.33;51.00;;;;;7.89;78.55;98623.25;5014373;28;46646;-69
2022/12/04 11:33:03;;;;;;;;;59.00;47.67;;;;;8.00;78.57;98630.75;5013558;28;45444;-68
2022/12/04 11:35:30;;;;;;;;;63.33;49.67;;;;;8.11;78.67;98619.84;5015528;28;45540;-68
2022/12/04 11:38:14;;;;;;;;;62.33;49.00;;;;;8.19;78.88;98623.91;5014773;28;45576;-68
2022/12/04 11:40:47;;;;;;;;;57.33;47.00;;;;;8.24;78.33;98615.81;5014654;28;46483;-68
2022/12/04 11:43:14;;;;;;;;;63.00;48.00;;;;;8.29;78.24;98608.63;5014591;28;45518;-68
2022/12/04 11:45:40;;;;;;;;;57.33;46.33;;;;;8.28;77.12;98604.28;5014864;28;45334;-68
2022/12/04 11:48:15;;;;;;;;;57.33;47.00;;;;;8.26;77.59;98611.38;5014562;28;45388;-68
2022/12/04 11:50:53;;;;;;;;;60.33;47.67;;;;;8.27;77.89;98611.31;5014906;28;45990;-69